Time;durP1;ratioP1;P1;durP2;ratioP2;P2;SDS_P1;SDS_P2;PMS_P1;PMS_P2;Temp;Humidity;BMP_temperature;BMP_pressure;BME280_temperature;BME280_humidity;BME280_pressure;Samples;Min_cycle;Max_cycle;Signal;HPM_P1;HPM_P2
2024/03/26 00:02:19;;;;;;;4.93;2.92;;;;;;;;;;4930480;29;20042;-66
2024/03/26 00:04:45;;;;;;;10.75;4.30;;;;;;;;;;4945956;29;20055;-67
2024/03/26 00:07:11;;;;;;;5.40;2.95;;;;;;;;;;4930798;29;20039;-66
2024/03/26 00:09:37;;;;;;;4.70;2.47;;;;;;;;;;4933180;29;20043;-66
2024/03/26 00:12:04;;;;;;;6.25;2.40;;;;;;;;;;4930132;29;20043;-66
2024/03/26 00:14:30;;;;;;;3.90;2.00;;;;;;;;;;4934168;29;20054;-66
2024/03/26 00:16:56;;;;;;;4.93;2.33;;;;;;;;;;4913795;29;20142;-66
2024/03/26 00:19:22;;;;;;;5.05;2.50;;;;;;;;;;4932981;29;20036;-66
2024/03/26 00:21:48;;;;;;;4.10;2.30;;;;;;;;;;4933632;28;20431;-66
2024/03/26 00:24:14;;;;;;;6.07;2.40;;;;;;;;;;4931609;29;20054;-66
2024/03/26 00:26:40;;;;;;;6.53;2.30;;;;;;;;;;4943632;29;20044;-66
2024/03/26 00:29:06;;;;;;;3.67;2.28;;;;;;;;;;4950027;28;20051;-66
2024/03/26 00:31:35;;;;;;;5.28;2.65;;;;;;;;;;4931309;29;20055;-66
2024/03/26 00:34:02;;;;;;;3.88;2.25;;;;;;;;;;4930460;29;20043;-66
2024/03/26 00:36:31;;;;;;;3.95;2.30;;;;;;;;;;4947985;28;20070;-66
2024/03/26 00:38:57;;;;;;;4.07;2.42;;;;;;;;;;4932170;29;20407;-66
2024/03/26 00:41:23;;;;;;;3.67;2.55;;;;;;;;;;4930901;28;20121;-66
2024/03/26 00:43:49;;;;;;;4.07;2.65;;;;;;;;;;4946039;28;20093;-66
2024/03/26 00:46:15;;;;;;;7.20;2.90;;;;;;;;;;4931064;29;20042;-66
2024/03/26 00:48:41;;;;;;;9.73;3.45;;;;;;;;;;4933643;28;20464;-66
2024/03/26 00:51:08;;;;;;;5.65;2.80;;;;;;;;;;4928034;29;20039;-66
2024/03/26 00:53:34;;;;;;;3.72;2.55;;;;;;;;;;4929607;29;20040;-66
2024/03/26 00:56:00;;;;;;;6.53;2.83;;;;;;;;;;4949444;28;20050;-66
2024/03/26 00:58:26;;;;;;;4.88;2.35;;;;;;;;;;4929250;29;20557;-66
2024/03/26 01:00:53;;;;;;;3.40;2.33;;;;;;;;;;4930524;29;20059;-66
2024/03/26 01:03:19;;;;;;;6.13;2.55;;;;;;;;;;4932059;29;20038;-66
2024/03/26 01:05:55;;;;;;;7.80;2.60;;;;;;;;;;4930181;29;20028;-65
2024/03/26 01:08:21;;;;;;;3.83;2.05;;;;;;;;;;4944938;28;20035;-66
2024/03/26 01:10:47;;;;;;;6.18;2.65;;;;;;;;;;4929860;29;20051;-66
2024/03/26 01:13:16;;;;;;;4.65;2.25;;;;;;;;;;4931123;29;20046;-65
2024/03/26 01:15:42;;;;;;;3.67;2.33;;;;;;;;;;4948702;28;20042;-66
2024/03/26 01:18:09;;;;;;;3.58;2.10;;;;;;;;;;4928690;29;20292;-66
2024/03/26 01:20:36;;;;;;;3.97;2.40;;;;;;;;;;4932435;29;20550;-65
2024/03/26 01:23:03;;;;;;;4.00;2.35;;;;;;;;;;4931478;29;20051;-66
2024/03/26 01:25:29;;;;;;;4.28;2.45;;;;;;;;;;4930501;29;20108;-66
2024/03/26 01:27:56;;;;;;;4.72;2.50;;;;;;;;;;4931800;29;20523;-66
2024/03/26 01:30:24;;;;;;;4.20;2.13;;;;;;;;;;4928925;29;20555;-66
2024/03/26 01:32:50;;;;;;;3.88;2.05;;;;;;;;;;4931876;28;20044;-66
2024/03/26 01:35:17;;;;;;;4.53;2.00;;;;;;;;;;4930366;29;20059;-65
2024/03/26 01:37:43;;;;;;;2.90;2.08;;;;;;;;;;4933332;28;20082;-66
2024/03/26 01:40:11;;;;;;;3.75;2.30;;;;;;;;;;4934192;28;20052;-66
2024/03/26 01:42:37;;;;;;;6.05;2.85;;;;;;;;;;4933620;29;20797;-66
2024/03/26 01:45:04;;;;;;;4.47;2.63;;;;;;;;;;4934687;29;20066;-66
2024/03/26 01:47:38;;;;;;;4.45;2.47;;;;;;;;;;4932936;29;20063;-66
2024/03/26 01:50:09;;;;;;;4.35;2.10;;;;;;;;;;4933694;28;20131;-66
2024/03/26 01:52:36;;;;;;;4.95;2.70;;;;;;;;;;4931787;29;20043;-65
2024/03/26 01:55:06;;;;;;;4.28;2.60;;;;;;;;;;4932287;29;20384;-66
2024/03/26 01:57:35;;;;;;;3.65;1.95;;;;;;;;;;4948543;28;20504;-65
2024/03/26 02:00:02;;;;;;;4.70;2.35;;;;;;;;;;4947989;28;20047;-65
2024/03/26 02:02:38;;;;;;;3.33;2.28;;;;;;;;;;4934613;29;20056;-65
2024/03/26 02:05:04;;;;;;;3.40;2.05;;;;;;;;;;4950611;28;20074;-66
2024/03/26 02:07:31;;;;;;;2.85;2.00;;;;;;;;;;4935676;29;20055;-65
2024/03/26 02:09:57;;;;;;;4.15;2.20;;;;;;;;;;4935073;28;20035;-65
2024/03/26 02:12:23;;;;;;;2.90;2.20;;;;;;;;;;4933300;29;20535;-65
2024/03/26 02:14:49;;;;;;;4.57;2.17;;;;;;;;;;4934848;29;20047;-66
2024/03/26 02:17:15;;;;;;;4.97;2.25;;;;;;;;;;4932426;29;20047;-66
2024/03/26 02:19:42;;;;;;;3.75;2.25;;;;;;;;;;4936667;29;20039;-66
2024/03/26 02:22:09;;;;;;;4.53;2.08;;;;;;;;;;4946272;29;20135;-66
2024/03/26 02:24:35;;;;;;;4.97;2.17;;;;;;;;;;4933789;29;20052;-66
2024/03/26 02:27:02;;;;;;;4.22;2.25;;;;;;;;;;4934788;29;20047;-66
2024/03/26 02:29:28;;;;;;;3.45;2.63;;;;;;;;;;4936025;29;20044;-66
2024/03/26 02:31:54;;;;;;;3.72;2.60;;;;;;;;;;4932292;29;20043;-66
2024/03/26 02:34:20;;;;;;;5.65;2.75;;;;;;;;;;4931978;29;20144;-65
2024/03/26 02:36:47;;;;;;;4.70;2.38;;;;;;;;;;4933037;29;20043;-66
2024/03/26 02:39:14;;;;;;;5.28;2.30;;;;;;;;;;4932184;29;20047;-65
2024/03/26 02:41:41;;;;;;;6.47;2.35;;;;;;;;;;4932640;29;20047;-66
2024/03/26 02:44:07;;;;;;;4.05;2.22;;;;;;;;;;4933117;29;20027;-65
2024/03/26 02:46:33;;;;;;;5.25;2.10;;;;;;;;;;4931674;29;20047;-66
2024/03/26 02:48:59;;;;;;;5.50;2.58;;;;;;;;;;4933919;29;20063;-66
2024/03/26 02:51:25;;;;;;;6.80;2.60;;;;;;;;;;4931617;29;20031;-66
2024/03/26 02:53:51;;;;;;;6.65;2.42;;;;;;;;;;4950687;28;20058;-65
2024/03/26 02:56:17;;;;;;;5.47;2.50;;;;;;;;;;4948079;28;20062;-66
2024/03/26 02:58:43;;;;;;;4.43;2.35;;;;;;;;;;4930541;29;20047;-66
2024/03/26 03:01:11;;;;;;;3.15;2.03;;;;;;;;;;4932120;28;20496;-66
2024/03/26 03:03:38;;;;;;;6.32;2.55;;;;;;;;;;4934262;28;20043;-65
2024/03/26 03:06:05;;;;;;;5.20;2.67;;;;;;;;;;4931970;29;20059;-65
2024/03/26 03:08:31;;;;;;;6.22;2.30;;;;;;;;;;4933534;29;20055;-65
2024/03/26 03:10:58;;;;;;;3.83;2.30;;;;;;;;;;4933204;28;20055;-66
2024/03/26 03:13:24;;;;;;;4.28;2.22;;;;;;;;;;4932895;28;20052;-65
2024/03/26 03:15:50;;;;;;;2.88;1.95;;;;;;;;;;4933164;29;20052;-65
2024/03/26 03:18:16;;;;;;;4.30;2.67;;;;;;;;;;4934582;29;20059;-65
2024/03/26 03:20:42;;;;;;;5.88;2.80;;;;;;;;;;4933077;28;20044;-65
2024/03/26 03:23:08;;;;;;;5.95;2.60;;;;;;;;;;4930902;29;20039;-65
2024/03/26 03:25:34;;;;;;;4.72;2.25;;;;;;;;;;4933482;29;20032;-65
2024/03/26 03:28:00;;;;;;;7.13;2.83;;;;;;;;;;4934296;28;20064;-65
2024/03/26 03:30:27;;;;;;;5.18;2.92;;;;;;;;;;4934238;29;20047;-66
2024/03/26 03:32:53;;;;;;;4.63;2.90;;;;;;;;;;4931044;29;20061;-67
2024/03/26 03:35:19;;;;;;;4.43;2.33;;;;;;;;;;4946360;28;20035;-64
2024/03/26 03:37:45;;;;;;;4.60;2.70;;;;;;;;;;4932760;29;20044;-66
2024/03/26 03:40:11;;;;;;;6.00;3.00;;;;;;;;;;4948316;28;20060;-66
2024/03/26 03:42:37;;;;;;;4.30;2.42;;;;;;;;;;4932674;29;20043;-66
2024/03/26 03:45:05;;;;;;;2.97;2.28;;;;;;;;;;4933188;29;20035;-66
2024/03/26 03:47:31;;;;;;;4.70;2.63;;;;;;;;;;4933067;29;20491;-66
2024/03/26 03:49:57;;;;;;;4.38;2.30;;;;;;;;;;4932108;29;20044;-65
2024/03/26 03:52:23;;;;;;;5.50;2.50;;;;;;;;;;4945495;28;20125;-65
2024/03/26 03:54:49;;;;;;;6.57;2.50;;;;;;;;;;4933962;29;20046;-65
2024/03/26 03:57:15;;;;;;;4.80;2.70;;;;;;;;;;4932709;29;20047;-65
2024/03/26 03:59:43;;;;;;;4.40;2.65;;;;;;;;;;4934004;29;20526;-65
2024/03/26 04:02:09;;;;;;;5.18;2.50;;;;;;;;;;4931680;28;20052;-66
2024/03/26 04:04:35;;;;;;;4.13;2.38;;;;;;;;;;4933123;29;20460;-65
2024/03/26 04:07:01;;;;;;;4.03;2.25;;;;;;;;;;4931313;29;20043;-65
2024/03/26 04:09:27;;;;;;;4.40;2.20;;;;;;;;;;4933570;29;20047;-65
2024/03/26 04:11:53;;;;;;;3.58;2.33;;;;;;;;;;4934815;28;20379;-66
2024/03/26 04:14:19;;;;;;;5.15;2.78;;;;;;;;;;4935787;29;20067;-65
2024/03/26 04:16:46;;;;;;;4.43;2.60;;;;;;;;;;4936170;28;20055;-65
2024/03/26 04:19:12;;;;;;;6.22;2.35;;;;;;;;;;4935572;29;20076;-65
2024/03/26 04:21:39;;;;;;;3.95;2.45;;;;;;;;;;4934261;29;20054;-64
2024/03/26 04:24:06;;;;;;;5.20;2.60;;;;;;;;;;4932042;29;20051;-65
2024/03/26 04:26:33;;;;;;;5.18;2.50;;;;;;;;;;4932467;29;20043;-65
2024/03/26 04:29:00;;;;;;;3.60;2.20;;;;;;;;;;4935378;29;20050;-65
2024/03/26 04:31:26;;;;;;;3.85;2.10;;;;;;;;;;4937882;29;20039;-65
2024/03/26 04:33:52;;;;;;;4.03;2.45;;;;;;;;;;4932634;28;20495;-65
2024/03/26 04:36:18;;;;;;;7.25;2.40;;;;;;;;;;4931135;29;20048;-65
2024/03/26 04:38:44;;;;;;;4.03;2.53;;;;;;;;;;4932600;29;20150;-66
2024/03/26 04:41:11;;;;;;;5.70;2.75;;;;;;;;;;4930849;29;20479;-66
2024/03/26 04:43:37;;;;;;;6.63;2.45;;;;;;;;;;4931946;29;20052;-65
2024/03/26 04:46:03;;;;;;;5.40;2.97;;;;;;;;;;4931973;29;20035;-65
2024/03/26 04:48:30;;;;;;;7.22;2.50;;;;;;;;;;4932495;29;20526;-65
2024/03/26 04:50:56;;;;;;;5.93;2.85;;;;;;;;;;4931514;29;20042;-65
2024/03/26 04:53:22;;;;;;;3.90;2.70;;;;;;;;;;4934846;29;20047;-65
2024/03/26 04:55:49;;;;;;;6.70;2.65;;;;;;;;;;4933405;29;20463;-65
2024/03/26 04:58:15;;;;;;;9.50;2.95;;;;;;;;;;4933672;29;20047;-64
2024/03/26 05:00:41;;;;;;;4.18;2.97;;;;;;;;;;4930886;29;20539;-66
2024/03/26 05:03:07;;;;;;;5.85;2.83;;;;;;;;;;4934215;29;20419;-65
2024/03/26 05:05:33;;;;;;;6.82;2.83;;;;;;;;;;4930376;29;20468;-65
2024/03/26 05:07:59;;;;;;;9.80;3.28;;;;;;;;;;4932709;29;20035;-64
2024/03/26 05:10:25;;;;;;;4.70;2.38;;;;;;;;;;4930584;29;20042;-65
2024/03/26 05:12:52;;;;;;;4.45;2.85;;;;;;;;;;4935868;29;20052;-65
2024/03/26 05:15:18;;;;;;;5.97;3.30;;;;;;;;;;4935920;28;20048;-65
2024/03/26 05:17:44;;;;;;;7.40;4.03;;;;;;;;;;4936016;29;20043;-64
2024/03/26 05:20:10;;;;;;;6.00;4.10;;;;;;;;;;4938611;29;20039;-64
2024/03/26 05:22:36;;;;;;;11.82;4.88;;;;;;;;;;4934853;29;20040;-65
2024/03/26 05:25:03;;;;;;;6.97;4.45;;;;;;;;;;4935841;29;20055;-64
2024/03/26 05:27:29;;;;;;;7.28;4.20;;;;;;;;;;4934163;29;20055;-65
2024/03/26 05:29:55;;;;;;;9.00;4.32;;;;;;;;;;4935221;29;20518;-65
2024/03/26 05:32:24;;;;;;;7.93;4.15;;;;;;;;;;4948811;29;20496;-65
2024/03/26 05:34:50;;;;;;;10.98;4.45;;;;;;;;;;4935139;29;20377;-64
2024/03/26 05:37:17;;;;;;;8.52;4.10;;;;;;;;;;4934254;29;20055;-65
2024/03/26 05:39:43;;;;;;;12.93;4.53;;;;;;;;;;4936255;29;20067;-64
2024/03/26 05:42:09;;;;;;;7.00;4.32;;;;;;;;;;4947742;28;20039;-65
2024/03/26 05:44:36;;;;;;;11.73;5.07;;;;;;;;;;4950224;28;20047;-66
2024/03/26 05:47:02;;;;;;;6.47;4.05;;;;;;;;;;4933123;29;20046;-65
2024/03/26 05:49:28;;;;;;;8.18;4.40;;;;;;;;;;4934147;29;20047;-65
2024/03/26 05:51:54;;;;;;;9.68;4.68;;;;;;;;;;4936497;29;20058;-65
2024/03/26 05:54:20;;;;;;;12.90;4.70;;;;;;;;;;4937434;28;20071;-65
2024/03/26 05:56:46;;;;;;;10.50;4.65;;;;;;;;;;4941439;29;20047;-65
2024/03/26 05:59:12;;;;;;;6.15;2.90;;;;;;;;;;4936035;29;20046;-65
2024/03/26 06:01:39;;;;;;;6.95;3.60;;;;;;;;;;4954063;28;20066;-65
2024/03/26 06:04:05;;;;;;;12.07;6.75;;;;;;;;;;4938210;29;20051;-64
2024/03/26 06:06:34;;;;;;;14.38;7.75;;;;;;;;;;4937664;29;20047;-62
2024/03/26 06:09:03;;;;;;;12.40;7.10;;;;;;;;;;4934303;29;20044;-63
2024/03/26 06:11:32;;;;;;;13.00;7.30;;;;;;;;;;4936634;29;20063;-63
2024/03/26 06:13:58;;;;;;;17.63;7.68;;;;;;;;;;4953251;28;20503;-62
2024/03/26 06:16:24;;;;;;;16.88;8.48;;;;;;;;;;4938250;29;20110;-63
2024/03/26 06:18:50;;;;;;;14.82;7.10;;;;;;;;;;4936889;29;20043;-63
2024/03/26 06:21:16;;;;;;;10.70;6.47;;;;;;;;;;4932454;29;20032;-64
2024/03/26 06:23:42;;;;;;;8.70;5.50;;;;;;;;;;4939418;29;20047;-63
2024/03/26 06:26:08;;;;;;;14.80;6.22;;;;;;;;;;4936871;28;20043;-63
2024/03/26 06:28:35;;;;;;;22.25;8.73;;;;;;;;;;4941026;28;20056;-64
2024/03/26 06:31:01;;;;;;;16.83;9.32;;;;;;;;;;4933150;29;20039;-62
2024/03/26 06:33:27;;;;;;;19.50;9.88;;;;;;;;;;4934359;29;20052;-62
2024/03/26 06:35:53;;;;;;;18.33;8.13;;;;;;;;;;4934816;29;20059;-63
2024/03/26 06:38:19;;;;;;;11.27;6.13;;;;;;;;;;4951511;28;20579;-62
2024/03/26 06:40:45;;;;;;;15.18;6.25;;;;;;;;;;4934158;29;20092;-62
2024/03/26 06:43:11;;;;;;;10.80;6.18;;;;;;;;;;4949237;29;20047;-62
2024/03/26 06:45:37;;;;;;;8.07;5.75;;;;;;;;;;4934437;29;20330;-62
2024/03/26 06:48:04;;;;;;;8.48;4.93;;;;;;;;;;4934164;29;20043;-62
2024/03/26 06:50:30;;;;;;;7.90;4.47;;;;;;;;;;4934122;29;20048;-62
2024/03/26 06:52:56;;;;;;;7.63;4.32;;;;;;;;;;4934008;29;20492;-62
2024/03/26 06:55:22;;;;;;;9.38;4.82;;;;;;;;;;4939800;29;20055;-62
2024/03/26 06:57:48;;;;;;;6.65;4.78;;;;;;;;;;4936203;29;20151;-62
2024/03/26 07:00:15;;;;;;;6.47;4.97;;;;;;;;;;4931729;29;20495;-62
2024/03/26 07:02:41;;;;;;;10.63;4.70;;;;;;;;;;4938860;29;20055;-63
2024/03/26 07:05:10;;;;;;;7.60;4.63;;;;;;;;;;4933919;28;20455;-63
2024/03/26 07:07:37;;;;;;;7.22;4.35;;;;;;;;;;4936421;29;20477;-64
2024/03/26 07:10:04;;;;;;;7.40;4.22;;;;;;;;;;4937425;28;20054;-62
2024/03/26 07:12:32;;;;;;;7.82;4.28;;;;;;;;;;4939214;29;20046;-62
2024/03/26 07:14:58;;;;;;;11.00;5.55;;;;;;;;;;4939372;28;20530;-62
2024/03/26 07:17:24;;;;;;;8.35;5.07;;;;;;;;;;4948253;28;20040;-62
2024/03/26 07:19:51;;;;;;;19.58;9.60;;;;;;;;;;4939017;29;20054;-62
2024/03/26 07:22:17;;;;;;;13.73;7.22;;;;;;;;;;4932279;29;20048;-62
2024/03/26 07:24:43;;;;;;;12.13;6.05;;;;;;;;;;4941620;28;20444;-62
2024/03/26 07:27:11;;;;;;;8.80;5.10;;;;;;;;;;4936606;29;20043;-62
2024/03/26 07:29:41;;;;;;;11.18;5.40;;;;;;;;;;4937048;29;20058;-62
2024/03/26 07:32:07;;;;;;;9.45;4.68;;;;;;;;;;4932654;29;20047;-62
2024/03/26 07:34:34;;;;;;;8.85;3.78;;;;;;;;;;4931037;29;20043;-62
2024/03/26 07:37:01;;;;;;;6.35;3.53;;;;;;;;;;4933646;29;20051;-62
2024/03/26 07:39:29;;;;;;;6.25;3.58;;;;;;;;;;4932585;29;20039;-62
2024/03/26 07:41:56;;;;;;;5.13;3.70;;;;;;;;;;4950152;28;20070;-63
2024/03/26 07:44:22;;;;;;;6.65;3.15;;;;;;;;;;4933946;29;20380;-62
2024/03/26 07:46:49;;;;;;;5.45;3.03;;;;;;;;;;4933499;29;20051;-63
2024/03/26 07:49:15;;;;;;;6.50;3.22;;;;;;;;;;4932470;28;20043;-63
2024/03/26 07:51:41;;;;;;;6.25;3.00;;;;;;;;;;4932833;28;20058;-62
2024/03/26 07:54:07;;;;;;;8.13;3.45;;;;;;;;;;4934484;29;20058;-62
2024/03/26 07:56:33;;;;;;;5.10;3.50;;;;;;;;;;4934534;29;20393;-62
2024/03/26 07:58:59;;;;;;;7.38;3.47;;;;;;;;;;4949616;28;20046;-62
2024/03/26 08:01:26;;;;;;;10.20;3.70;;;;;;;;;;4935010;28;20043;-63
2024/03/26 08:03:52;;;;;;;9.70;3.90;;;;;;;;;;4935492;29;20040;-63
2024/03/26 08:06:18;;;;;;;8.07;3.72;;;;;;;;;;4936118;29;20052;-62
2024/03/26 08:08:50;;;;;;;5.97;3.72;;;;;;;;;;4934151;28;20051;-63
2024/03/26 08:11:17;;;;;;;6.68;4.10;;;;;;;;;;4935928;29;20051;-63
2024/03/26 08:13:43;;;;;;;7.68;4.13;;;;;;;;;;4939283;28;20138;-63
2024/03/26 08:16:10;;;;;;;5.85;3.60;;;;;;;;;;4933057;28;20066;-62
2024/03/26 08:18:36;;;;;;;7.63;3.67;;;;;;;;;;4933168;29;20403;-62
2024/03/26 08:21:03;;;;;;;9.20;4.05;;;;;;;;;;4930291;29;20108;-63
2024/03/26 08:23:29;;;;;;;7.78;3.85;;;;;;;;;;4935704;29;20055;-63
2024/03/26 08:25:56;;;;;;;7.03;4.05;;;;;;;;;;4933252;28;20051;-62
2024/03/26 08:28:22;;;;;;;8.48;4.95;;;;;;;;;;4932669;29;20054;-63
2024/03/26 08:30:48;;;;;;;5.68;4.10;;;;;;;;;;4914756;29;20040;-63
2024/03/26 08:33:14;;;;;;;8.98;4.20;;;;;;;;;;4932694;28;20051;-63
2024/03/26 08:35:41;;;;;;;6.90;3.78;;;;;;;;;;4933176;29;20047;-62
2024/03/26 08:38:07;;;;;;;9.15;4.20;;;;;;;;;;4931649;29;20047;-63
2024/03/26 08:40:35;;;;;;;10.07;4.40;;;;;;;;;;4930731;29;20058;-63
2024/03/26 08:43:03;;;;;;;10.57;4.70;;;;;;;;;;4932644;29;20048;-63
2024/03/26 08:45:29;;;;;;;7.68;4.25;;;;;;;;;;4930175;29;20043;-63
2024/03/26 08:47:56;;;;;;;7.72;4.18;;;;;;;;;;4933164;29;20059;-62
2024/03/26 08:50:23;;;;;;;11.20;6.20;;;;;;;;;;4930975;29;20147;-63
2024/03/26 08:52:49;;;;;;;14.68;6.38;;;;;;;;;;4948308;29;20059;-63
2024/03/26 08:55:15;;;;;;;10.80;5.90;;;;;;;;;;4933910;29;20056;-62
2024/03/26 08:57:41;;;;;;;10.57;5.15;;;;;;;;;;4947240;29;20039;-63
2024/03/26 09:00:09;;;;;;;7.45;4.60;;;;;;;;;;4946188;28;20052;-63
2024/03/26 09:02:35;;;;;;;9.48;4.57;;;;;;;;;;4933654;29;20052;-63
2024/03/26 09:05:02;;;;;;;7.35;4.00;;;;;;;;;;4934185;28;20067;-63
2024/03/26 09:07:28;;;;;;;7.90;4.00;;;;;;;;;;4932271;28;20052;-63
2024/03/26 09:09:55;;;;;;;9.90;4.20;;;;;;;;;;4932442;29;20051;-63
2024/03/26 09:12:21;;;;;;;7.82;4.53;;;;;;;;;;4932370;29;20043;-62
2024/03/26 09:14:47;;;;;;;6.93;4.10;;;;;;;;;;4949441;28;20139;-63
2024/03/26 09:17:13;;;;;;;6.18;3.92;;;;;;;;;;4930323;29;20048;-63
2024/03/26 09:19:39;;;;;;;6.47;4.10;;;;;;;;;;4935798;29;20047;-63
2024/03/26 09:22:06;;;;;;;7.57;4.28;;;;;;;;;;4930537;28;20511;-63
2024/03/26 09:24:32;;;;;;;9.40;4.20;;;;;;;;;;4935616;29;20066;-63
2024/03/26 09:26:58;;;;;;;8.45;4.10;;;;;;;;;;4932750;28;20051;-63
2024/03/26 09:29:24;;;;;;;9.60;4.20;;;;;;;;;;4933889;29;20047;-63
2024/03/26 09:31:50;;;;;;;8.15;4.72;;;;;;;;;;4931078;29;20035;-63
2024/03/26 09:34:17;;;;;;;8.27;4.40;;;;;;;;;;4933316;29;20039;-64
2024/03/26 09:36:43;;;;;;;7.10;4.40;;;;;;;;;;4932802;29;20036;-63
2024/03/26 09:39:09;;;;;;;9.45;4.43;;;;;;;;;;4933659;28;20058;-64
2024/03/26 09:41:38;;;;;;;8.00;4.45;;;;;;;;;;4933211;28;20059;-64
2024/03/26 09:44:04;;;;;;;;;;;;;;;;;;4932626;29;20504;-64
2024/03/26 09:46:30;;;;;;;11.40;4.90;;;;;;;;;;4932562;29;19922;-63
2024/03/26 09:49:01;;;;;;;14.45;5.78;;;;;;;;;;4932695;28;20049;-64
2024/03/26 09:51:30;;;;;;;9.13;4.93;;;;;;;;;;4945860;28;20133;-63
2024/03/26 09:53:57;;;;;;;11.17;4.80;;;;;;;;;;4932177;29;20051;-63
2024/03/26 09:56:23;;;;;;;8.32;4.20;;;;;;;;;;4932940;28;20047;-63
2024/03/26 09:58:50;;;;;;;8.23;4.60;;;;;;;;;;4937693;28;20066;-63
2024/03/26 10:01:25;;;;;;;9.07;4.35;;;;;;;;;;4933110;29;20048;-63
2024/03/26 10:03:52;;;;;;;5.85;4.13;;;;;;;;;;4936406;28;20365;-63
2024/03/26 10:06:23;;;;;;;7.90;4.03;;;;;;;;;;4934981;29;20751;-63
2024/03/26 10:08:50;;;;;;;10.93;4.10;;;;;;;;;;4953316;28;20048;-63
2024/03/26 10:11:16;;;;;;;9.15;4.30;;;;;;;;;;4937071;29;20071;-63
2024/03/26 10:13:42;;;;;;;6.63;3.70;;;;;;;;;;4941379;29;20050;-63
2024/03/26 10:16:08;;;;;;;10.98;4.18;;;;;;;;;;4934997;29;20051;-63
2024/03/26 10:18:34;;;;;;;17.08;6.00;;;;;;;;;;4934992;29;20539;-64
2024/03/26 10:21:02;;;;;;;8.27;3.88;;;;;;;;;;4938177;28;20039;-64
2024/03/26 10:23:28;;;;;;;7.80;3.55;;;;;;;;;;4941223;29;20042;-64
2024/03/26 10:25:57;;;;;;;8.07;3.78;;;;;;;;;;4950360;28;20043;-64
2024/03/26 10:28:23;;;;;;;5.80;3.70;;;;;;;;;;4934940;29;20051;-64
2024/03/26 10:30:51;;;;;;;9.18;4.05;;;;;;;;;;4951013;28;20043;-64
2024/03/26 10:33:19;;;;;;;7.00;3.83;;;;;;;;;;4935740;28;20062;-64
2024/03/26 10:35:49;;;;;;;6.65;3.90;;;;;;;;;;4936496;28;20047;-64
2024/03/26 10:38:18;;;;;;;8.35;3.72;;;;;;;;;;4933314;29;20530;-64
2024/03/26 10:41:10;;;;;;;7.47;3.47;;;;;;;;;;4935805;29;20042;-65
2024/03/26 10:43:38;;;;;;;5.45;3.40;;;;;;;;;;4934752;29;20303;-65
2024/03/26 10:46:05;;;;;;;6.35;3.45;;;;;;;;;;4934823;29;20050;-65
2024/03/26 10:48:33;;;;;;;5.82;3.10;;;;;;;;;;4934801;29;20492;-65
2024/03/26 10:51:01;;;;;;;7.22;3.92;;;;;;;;;;4934861;28;20067;-64
2024/03/26 10:53:29;;;;;;;6.60;3.22;;;;;;;;;;4934841;29;20056;-65
2024/03/26 10:55:58;;;;;;;5.93;3.30;;;;;;;;;;4936712;29;20042;-65
2024/03/26 10:58:25;;;;;;;8.88;3.60;;;;;;;;;;4936928;29;20044;-65
2024/03/26 11:00:52;;;;;;;6.00;3.67;;;;;;;;;;4941030;29;20047;-64
2024/03/26 11:03:19;;;;;;;6.55;3.38;;;;;;;;;;4935970;29;20051;-65
2024/03/26 11:05:45;;;;;;;8.63;3.80;;;;;;;;;;4932965;29;20051;-64
2024/03/26 11:08:19;;;;;;;8.82;4.13;;;;;;;;;;4947077;28;20078;-64
2024/03/26 11:10:58;;;;;;;9.00;4.35;;;;;;;;;;4952467;28;20046;-64
2024/03/26 11:13:27;;;;;;;6.50;3.60;;;;;;;;;;4937580;29;20427;-64
2024/03/26 11:15:54;;;;;;;6.25;3.83;;;;;;;;;;4938428;29;20062;-64
2024/03/26 11:18:32;;;;;;;10.40;4.32;;;;;;;;;;4934035;29;20055;-64
2024/03/26 11:21:03;;;;;;;9.05;3.70;;;;;;;;;;4934522;29;20434;-64
2024/03/26 11:23:35;;;;;;;5.50;3.50;;;;;;;;;;4951743;28;20447;-65
2024/03/26 11:26:02;;;;;;;8.75;3.90;;;;;;;;;;4939944;29;20059;-64
2024/03/26 11:28:33;;;;;;;8.40;4.18;;;;;;;;;;4934190;29;20039;-64
2024/03/26 11:31:01;;;;;;;6.53;3.70;;;;;;;;;;4934737;28;20056;-64
2024/03/26 11:33:30;;;;;;;6.30;3.90;;;;;;;;;;4934328;29;20047;-64
2024/03/26 11:35:57;;;;;;;12.60;3.58;;;;;;;;;;4935401;29;20039;-64
2024/03/26 11:38:25;;;;;;;6.82;4.18;;;;;;;;;;4933597;28;20047;-64
2024/03/26 11:40:51;;;;;;;3.83;2.92;;;;;;;;;;4933216;29;20659;-64
2024/03/26 11:43:20;;;;;;;10.13;3.38;;;;;;;;;;4934011;29;20043;-64
2024/03/26 11:45:47;;;;;;;5.28;3.20;;;;;;;;;;4938410;29;20400;-64
2024/03/26 11:48:16;;;;;;;8.18;3.58;;;;;;;;;;4934846;28;20035;-64
2024/03/26 11:50:43;;;;;;;9.68;3.05;;;;;;;;;;4932685;29;20070;-64
2024/03/26 11:53:10;;;;;;;6.10;3.30;;;;;;;;;;4932783;29;20060;-64
2024/03/26 11:55:38;;;;;;;4.72;2.80;;;;;;;;;;4936214;28;20047;-64
2024/03/26 11:58:07;;;;;;;4.97;2.83;;;;;;;;;;4932865;29;20047;-64
2024/03/26 12:00:35;;;;;;;9.20;3.42;;;;;;;;;;4934734;29;20051;-65
2024/03/26 12:03:01;;;;;;;5.43;2.85;;;;;;;;;;4933221;29;20046;-64
2024/03/26 12:05:28;;;;;;;6.25;2.95;;;;;;;;;;4933272;29;20043;-64
2024/03/26 12:07:54;;;;;;;9.27;2.90;;;;;;;;;;4933025;29;20058;-64
2024/03/26 12:10:20;;;;;;;3.25;2.45;;;;;;;;;;4936622;29;20056;-66
2024/03/26 12:12:47;;;;;;;4.28;2.35;;;;;;;;;;4932818;29;20051;-64
2024/03/26 12:15:14;;;;;;;5.05;1.83;;;;;;;;;;4936688;29;20043;-64
2024/03/26 12:17:40;;;;;;;3.58;1.70;;;;;;;;;;4941591;29;20539;-64
2024/03/26 12:20:10;;;;;;;6.07;2.30;;;;;;;;;;4932032;28;20047;-65
2024/03/26 12:22:36;;;;;;;4.18;2.22;;;;;;;;;;4935093;29;20055;-65
2024/03/26 12:25:06;;;;;;;3.20;1.30;;;;;;;;;;4939046;29;20051;-65
2024/03/26 12:27:33;;;;;;;1.90;1.38;;;;;;;;;;4933763;29;20048;-64
2024/03/26 12:29:59;;;;;;;4.47;2.03;;;;;;;;;;4947366;28;20496;-64
2024/03/26 12:32:29;;;;;;;3.47;1.30;;;;;;;;;;4947511;29;20118;-64
2024/03/26 12:34:55;;;;;;;3.28;1.23;;;;;;;;;;4931571;29;20047;-64
2024/03/26 12:37:25;;;;;;;1.92;0.98;;;;;;;;;;4933671;29;20035;-64
2024/03/26 12:39:51;;;;;;;2.25;1.05;;;;;;;;;;4947559;28;20051;-64
2024/03/26 12:42:17;;;;;;;3.72;0.98;;;;;;;;;;4930577;29;20063;-65
2024/03/26 12:44:43;;;;;;;1.75;0.85;;;;;;;;;;4933011;29;20361;-65
2024/03/26 12:47:09;;;;;;;1.83;0.70;;;;;;;;;;4915068;29;20039;-66
2024/03/26 12:49:35;;;;;;;2.45;1.10;;;;;;;;;;4933337;29;20059;-65
2024/03/26 12:52:02;;;;;;;3.30;1.27;;;;;;;;;;4933307;28;20054;-64
2024/03/26 12:54:28;;;;;;;1.85;0.93;;;;;;;;;;4935436;28;20415;-65
2024/03/26 12:56:54;;;;;;;4.28;1.10;;;;;;;;;;4937203;29;20039;-64
2024/03/26 12:59:20;;;;;;;2.10;1.10;;;;;;;;;;4932759;29;20571;-64
2024/03/26 13:01:47;;;;;;;4.40;1.00;;;;;;;;;;4934315;29;20055;-64
2024/03/26 13:04:13;;;;;;;3.75;0.90;;;;;;;;;;4932721;29;20518;-64
2024/03/26 13:06:40;;;;;;;3.60;1.05;;;;;;;;;;4938940;29;20561;-65
2024/03/26 13:09:08;;;;;;;5.20;1.77;;;;;;;;;;4936518;29;20067;-65
2024/03/26 13:11:35;;;;;;;4.32;2.60;;;;;;;;;;4931827;29;20051;-64
2024/03/26 13:14:01;;;;;;;2.80;1.95;;;;;;;;;;4935548;29;20050;-64
2024/03/26 13:16:28;;;;;;;3.28;1.70;;;;;;;;;;4932482;29;20047;-64
2024/03/26 13:18:55;;;;;;;4.50;1.35;;;;;;;;;;4932511;29;20047;-65
2024/03/26 13:21:21;;;;;;;4.28;1.48;;;;;;;;;;4937228;29;20399;-64
2024/03/26 13:23:47;;;;;;;4.13;1.30;;;;;;;;;;4931973;29;20044;-64
2024/03/26 13:26:13;;;;;;;2.75;1.30;;;;;;;;;;4930875;29;20047;-65
2024/03/26 13:28:39;;;;;;;3.75;1.98;;;;;;;;;;4933044;29;20035;-64
2024/03/26 13:31:05;;;;;;;2.22;1.38;;;;;;;;;;4946763;28;20062;-64
2024/03/26 13:33:31;;;;;;;2.35;1.27;;;;;;;;;;4936970;29;20063;-64
2024/03/26 13:35:57;;;;;;;1.65;1.25;;;;;;;;;;4942693;29;20047;-64
2024/03/26 13:38:24;;;;;;;1.60;1.25;;;;;;;;;;4935114;29;20051;-65
2024/03/26 13:40:50;;;;;;;2.67;1.38;;;;;;;;;;4935308;29;20051;-65
2024/03/26 13:43:16;;;;;;;2.13;1.35;;;;;;;;;;4936627;29;20040;-64
2024/03/26 13:45:45;;;;;;;6.00;1.98;;;;;;;;;;4937534;29;20047;-65
2024/03/26 13:48:19;;;;;;;2.30;1.58;;;;;;;;;;4949981;28;20054;-65
2024/03/26 13:50:45;;;;;;;2.95;1.52;;;;;;;;;;4937206;28;20496;-65
2024/03/26 13:53:12;;;;;;;2.63;1.50;;;;;;;;;;4933830;29;20055;-65
2024/03/26 13:55:39;;;;;;;3.78;1.23;;;;;;;;;;4937888;29;20051;-64
2024/03/26 13:58:06;;;;;;;2.67;1.05;;;;;;;;;;4939047;28;20079;-64
2024/03/26 14:00:34;;;;;;;2.53;1.00;;;;;;;;;;4934727;29;20051;-64
2024/03/26 14:03:01;;;;;;;1.63;1.30;;;;;;;;;;4938561;29;20055;-65
2024/03/26 14:05:27;;;;;;;8.30;1.83;;;;;;;;;;4954642;28;20039;-65
2024/03/26 14:07:54;;;;;;;2.13;1.13;;;;;;;;;;4937017;28;20048;-64
2024/03/26 14:10:20;;;;;;;2.10;1.13;;;;;;;;;;4935457;28;20051;-64
2024/03/26 14:12:47;;;;;;;2.70;1.63;;;;;;;;;;4940217;29;20393;-64
2024/03/26 14:15:13;;;;;;;2.20;1.38;;;;;;;;;;4935991;29;20063;-65
2024/03/26 14:17:40;;;;;;;3.42;1.58;;;;;;;;;;4937535;28;20052;-64
2024/03/26 14:20:11;;;;;;;8.20;1.27;;;;;;;;;;4935087;29;20059;-65
2024/03/26 14:22:41;;;;;;;2.13;1.30;;;;;;;;;;4933827;29;20048;-65
2024/03/26 14:25:18;;;;;;;2.03;1.50;;;;;;;;;;4935465;29;20043;-64
2024/03/26 14:27:47;;;;;;;4.90;1.30;;;;;;;;;;4936891;29;20047;-65
2024/03/26 14:30:14;;;;;;;4.15;1.27;;;;;;;;;;4934044;29;20548;-63
2024/03/26 14:32:41;;;;;;;2.28;1.00;;;;;;;;;;4950640;28;20036;-64
2024/03/26 14:35:11;;;;;;;3.90;1.30;;;;;;;;;;4938075;29;20157;-64
2024/03/26 14:37:38;;;;;;;5.45;1.30;;;;;;;;;;4935392;29;20032;-64
2024/03/26 14:40:05;;;;;;;2.67;1.50;;;;;;;;;;4949594;28;20051;-64